Time;durP1;ratioP1;P1;durP2;ratioP2;P2;SDS_P1;SDS_P2;PMS_P1;PMS_P2;Temp;Humidity;BMP_temperature;BMP_pressure;BME280_temperature;BME280_humidity;BME280_pressure;Samples;Min_cycle;Max_cycle;Signal;HPM_P1;HPM_P2
2023/04/05 00:00:29;;;;;;;14.67;9.53;;;4.70;99.90;;;;;;5018886;28;20176;-67
2023/04/05 00:02:58;;;;;;;14.23;10.10;;;4.60;99.90;;;;;;5029124;28;20260;-64
2023/04/05 00:05:33;;;;;;;12.70;9.53;;;4.60;99.90;;;;;;5004917;28;20267;-67
2023/04/05 00:08:00;;;;;;;15.37;9.57;;;4.50;99.90;;;;;;5015338;28;20195;-67
2023/04/05 00:10:30;;;;;;;15.07;11.40;;;4.50;99.90;;;;;;5020887;28;20239;-67
2023/04/05 00:12:57;;;;;;;22.50;10.90;;;4.40;99.90;;;;;;5028386;28;20215;-67
2023/04/05 00:15:23;;;;;;;15.13;10.77;;;4.40;99.90;;;;;;4998193;28;20180;-67
2023/04/05 00:17:49;;;;;;;17.47;9.90;;;4.40;99.90;;;;;;5024971;28;20812;-65
2023/04/05 00:20:15;;;;;;;13.40;9.17;;;4.40;99.90;;;;;;5013780;28;20269;-65
2023/04/05 00:22:45;;;;;;;15.00;10.93;;;4.40;99.90;;;;;;5017813;28;20215;-68
2023/04/05 00:25:11;;;;;;;11.33;8.77;;;4.30;99.90;;;;;;5003722;28;20649;-65
2023/04/05 00:27:37;;;;;;;13.77;10.23;;;4.30;99.90;;;;;;5025338;28;20659;-66
2023/04/05 00:30:03;;;;;;;15.07;11.23;;;4.30;99.90;;;;;;5021853;28;20184;-66
2023/04/05 00:32:29;;;;;;;14.70;8.93;;;4.30;99.90;;;;;;5026080;28;20200;-65
2023/04/05 00:34:55;;;;;;;14.27;10.10;;;4.30;99.90;;;;;;5017707;28;20190;-66
2023/04/05 00:37:21;;;;;;;17.37;9.80;;;4.20;99.90;;;;;;5056955;28;20187;-66
2023/04/05 00:39:47;;;;;;;14.40;9.80;;;4.20;99.90;;;;;;5030552;28;20183;-65
2023/04/05 00:42:13;;;;;;;19.03;11.50;;;4.20;99.90;;;;;;5021607;28;20292;-66
2023/04/05 00:44:39;;;;;;;15.53;9.93;;;4.20;99.90;;;;;;5049257;28;20238;-66
2023/04/05 00:47:06;;;;;;;13.10;8.73;;;4.10;99.90;;;;;;5008623;28;20649;-66
2023/04/05 00:49:33;;;;;;;17.50;11.03;;;4.10;99.90;;;;;;5021253;28;20179;-66
2023/04/05 00:51:59;;;;;;;15.87;9.53;;;4.00;99.90;;;;;;5034886;28;20184;-65
2023/04/05 00:54:29;;;;;;;14.97;9.23;;;4.10;99.90;;;;;;5021458;28;20208;-65
2023/04/05 00:56:56;;;;;;;16.37;11.00;;;4.00;99.90;;;;;;5018565;28;20233;-65
2023/04/05 00:59:22;;;;;;;13.90;10.17;;;4.00;99.90;;;;;;5021614;28;20181;-65
2023/04/05 01:01:57;;;;;;;9.60;7.87;;;4.00;99.90;;;;;;5021004;28;20265;-65
2023/04/05 01:04:29;;;;;;;17.60;10.57;;;4.00;99.90;;;;;;5031121;28;20186;-65
2023/04/05 01:07:06;;;;;;;14.07;9.70;;;4.00;99.90;;;;;;5022610;28;20205;-65
2023/04/05 01:09:37;;;;;;;15.40;10.03;;;3.90;99.90;;;;;;5024960;28;20194;-65
2023/04/05 01:12:08;;;;;;;16.00;10.00;;;3.90;99.90;;;;;;5038397;28;20216;-65
2023/04/05 01:14:52;;;;;;;10.27;9.17;;;3.90;99.90;;;;;;5021779;28;20236;-65
2023/04/05 01:17:21;;;;;;;13.13;9.40;;;3.90;99.90;;;;;;5002658;28;20290;-66
2023/04/05 01:19:52;;;;;;;13.90;9.77;;;3.80;99.90;;;;;;5021226;28;20218;-68
2023/04/05 01:22:30;;;;;;;15.50;8.83;;;3.80;99.90;;;;;;5007402;28;20210;-66
2023/04/05 01:25:09;;;;;;;14.70;9.57;;;3.70;99.90;;;;;;5027559;28;20189;-66
2023/04/05 01:27:41;;;;;;;11.73;9.40;;;3.70;99.90;;;;;;5015281;28;20226;-66
2023/04/05 01:30:31;;;;;;;13.93;10.13;;;3.70;99.90;;;;;;5021217;28;20188;-66
2023/04/05 01:33:17;;;;;;;12.67;9.37;;;3.70;99.90;;;;;;5019772;28;20228;-65
2023/04/05 01:36:28;;;;;;;15.20;9.47;;;3.60;99.90;;;;;;5023200;28;20179;-66
2023/04/05 01:38:55;;;;;;;15.83;9.57;;;3.70;99.90;;;;;;5012619;28;20194;-65
2023/04/05 01:41:22;;;;;;;12.27;9.00;;;3.70;99.90;;;;;;5024646;28;20324;-65
2023/04/05 01:43:48;;;;;;;12.03;9.07;;;3.60;99.90;;;;;;5026761;28;20188;-65
2023/04/05 01:46:13;;;;;;;16.80;9.83;;;3.60;99.90;;;;;;5022134;28;20198;-65
2023/04/05 01:48:39;;;;;;;24.33;10.47;;;3.60;99.90;;;;;;5016167;28;20227;-65
2023/04/05 01:51:04;;;;;;;14.70;8.50;;;3.50;99.90;;;;;;5031216;28;20191;-65
2023/04/05 01:53:30;;;;;;;15.80;9.43;;;3.50;99.90;;;;;;5024710;28;20254;-65
2023/04/05 01:56:00;;;;;;;18.33;10.60;;;3.50;99.90;;;;;;5022122;28;20266;-65
2023/04/05 01:58:26;;;;;;;15.27;8.33;;;3.50;99.90;;;;;;5011570;28;20253;-65
2023/04/05 02:00:55;;;;;;;19.77;10.33;;;3.40;99.90;;;;;;5035576;28;20589;-65
2023/04/05 02:03:22;;;;;;;14.30;9.57;;;3.40;99.90;;;;;;5030155;28;20207;-65
2023/04/05 02:05:48;;;;;;;13.80;9.23;;;3.40;99.90;;;;;;5004066;28;20199;-65
2023/04/05 02:08:14;;;;;;;12.63;8.93;;;3.40;99.90;;;;;;5021437;28;20191;-64
2023/04/05 02:10:40;;;;;;;12.57;9.20;;;3.40;99.90;;;;;;5032105;28;20268;-65
2023/04/05 02:13:06;;;;;;;17.07;9.43;;;3.40;99.90;;;;;;5024182;28;20223;-65
2023/04/05 02:15:32;;;;;;;15.00;9.23;;;3.30;99.90;;;;;;5032347;28;20226;-65
2023/04/05 02:18:00;;;;;;;12.43;8.70;;;3.30;99.90;;;;;;5022978;28;20227;-65
2023/04/05 02:20:27;;;;;;;12.23;9.17;;;3.30;99.90;;;;;;5022735;28;20183;-65
2023/04/05 02:22:53;;;;;;;14.03;9.03;;;3.20;99.90;;;;;;5021783;28;20192;-65
2023/04/05 02:25:19;;;;;;;13.80;9.53;;;3.30;99.90;;;;;;5027207;28;20183;-65
2023/04/05 02:27:46;;;;;;;13.73;7.77;;;3.20;99.90;;;;;;5002089;28;20196;-65
2023/04/05 02:30:12;;;;;;;19.27;9.83;;;3.20;99.90;;;;;;5012184;28;20250;-65
2023/04/05 02:32:41;;;;;;;10.60;9.33;;;3.20;99.90;;;;;;5028184;28;20183;-65
2023/04/05 02:35:08;;;;;;;16.50;9.23;;;3.20;99.90;;;;;;5019020;28;20559;-66
2023/04/05 02:37:34;;;;;;;21.10;9.73;;;3.20;99.90;;;;;;5024088;28;20182;-65
2023/04/05 02:40:00;;;;;;;16.57;9.67;;;3.10;99.90;;;;;;5017174;28;20180;-65
2023/04/05 02:42:25;;;;;;;20.37;10.53;;;3.10;99.90;;;;;;5019269;28;20269;-64
2023/04/05 02:44:52;;;;;;;21.13;10.77;;;3.10;99.90;;;;;;5024902;28;20604;-66
2023/04/05 02:47:21;;;;;;;13.77;9.07;;;3.10;99.90;;;;;;5020113;28;20665;-66
2023/04/05 02:49:47;;;;;;;16.80;9.77;;;3.10;99.90;;;;;;5023111;28;20635;-66
2023/04/05 02:52:14;;;;;;;20.43;10.40;;;3.00;99.90;;;;;;5030691;28;20187;-66
2023/04/05 02:54:39;;;;;;;11.40;7.07;;;3.00;99.90;;;;;;5008475;28;20235;-66
2023/04/05 02:57:09;;;;;;;11.87;9.20;;;3.00;99.90;;;;;;5014066;28;20633;-66
2023/04/05 02:59:35;;;;;;;11.73;7.90;;;3.00;99.90;;;;;;5031732;28;20308;-66
2023/04/05 03:02:01;;;;;;;10.80;8.60;;;3.00;99.90;;;;;;5013727;28;20190;-66
2023/04/05 03:04:27;;;;;;;13.90;8.13;;;2.90;99.90;;;;;;5004215;28;20196;-64
2023/04/05 03:06:53;;;;;;;18.73;9.40;;;2.90;99.90;;;;;;5010076;28;20679;-65
2023/04/05 03:09:20;;;;;;;17.03;10.13;;;3.00;99.90;;;;;;5002375;28;20191;-65
2023/04/05 03:11:45;;;;;;;12.93;9.27;;;2.90;99.90;;;;;;5011699;28;20212;-65
2023/04/05 03:14:11;;;;;;;13.27;9.07;;;2.90;99.90;;;;;;5004874;28;20293;-65
2023/04/05 03:16:40;;;;;;;15.87;9.97;;;2.90;99.90;;;;;;5014261;28;20651;-65
2023/04/05 03:19:06;;;;;;;14.90;9.77;;;2.90;99.90;;;;;;5003308;28;20188;-65
2023/04/05 03:21:32;;;;;;;13.03;10.27;;;3.00;99.90;;;;;;5011315;28;20192;-66
2023/04/05 03:23:59;;;;;;;14.00;10.13;;;2.90;99.90;;;;;;5004538;28;20192;-66
2023/04/05 03:26:25;;;;;;;15.10;8.77;;;2.90;99.90;;;;;;4998442;28;20246;-66
2023/04/05 03:28:50;;;;;;;13.37;9.03;;;2.80;99.90;;;;;;5009617;28;20192;-65
2023/04/05 03:31:16;;;;;;;20.13;10.47;;;2.80;99.90;;;;;;5007741;28;20200;-64
2023/04/05 03:33:42;;;;;;;12.87;9.67;;;2.80;99.90;;;;;;5011585;28;20224;-64
2023/04/05 03:36:08;;;;;;;12.33;8.37;;;2.80;99.90;;;;;;5010605;28;20226;-69
2023/04/05 03:38:34;;;;;;;12.30;8.57;;;2.70;99.90;;;;;;5005059;28;20183;-65
2023/04/05 03:41:01;;;;;;;14.50;8.50;;;2.70;99.90;;;;;;5006606;28;20195;-65
2023/04/05 03:43:28;;;;;;;10.17;8.93;;;2.70;99.90;;;;;;5013305;28;20186;-65
2023/04/05 03:45:54;;;;;;;13.77;8.60;;;2.70;99.90;;;;;;4999494;28;20235;-65
2023/04/05 03:48:20;;;;;;;15.93;10.20;;;2.60;99.90;;;;;;5008821;28;20195;-65
2023/04/05 03:50:46;;;;;;;12.20;8.93;;;2.60;99.90;;;;;;5001878;28;20180;-65
2023/04/05 03:53:12;;;;;;;15.13;9.00;;;2.60;99.90;;;;;;5006144;28;20215;-65
2023/04/05 03:55:49;;;;;;;12.53;8.83;;;2.60;99.90;;;;;;5008438;28;20235;-65
2023/04/05 03:58:15;;;;;;;20.67;7.60;;;2.60;99.90;;;;;;5003106;28;20765;-65
2023/04/05 04:00:41;;;;;;;18.47;9.03;;;2.50;99.90;;;;;;5004430;28;20329;-64
2023/04/05 04:03:08;;;;;;;12.87;9.07;;;2.50;99.90;;;;;;5006609;28;20282;-64
2023/04/05 04:05:37;;;;;;;14.67;7.93;;;2.50;99.90;;;;;;5005580;28;20187;-65
2023/04/05 04:08:06;;;;;;;16.07;8.23;;;2.50;99.90;;;;;;5003646;28;20653;-65
2023/04/05 04:10:33;;;;;;;13.57;9.90;;;2.50;99.90;;;;;;5041141;28;20215;-65
2023/04/05 04:12:59;;;;;;;18.77;9.30;;;2.40;99.90;;;;;;4998286;28;20221;-65
2023/04/05 04:15:25;;;;;;;12.47;8.87;;;2.50;99.90;;;;;;5000964;28;20259;-65
2023/04/05 04:17:51;;;;;;;12.33;8.80;;;2.50;99.90;;;;;;5008626;28;20226;-65
2023/04/05 04:20:16;;;;;;;12.80;8.43;;;2.40;99.90;;;;;;5010747;28;20199;-64
2023/04/05 04:22:42;;;;;;;15.03;8.90;;;2.40;99.90;;;;;;5004460;28;20214;-64
2023/04/05 04:25:09;;;;;;;19.17;9.73;;;2.40;99.90;;;;;;5002675;28;20194;-64
2023/04/05 04:27:40;;;;;;;16.60;9.40;;;2.40;99.90;;;;;;5011204;28;20187;-64
2023/04/05 04:30:09;;;;;;;12.77;7.80;;;2.30;99.90;;;;;;5003651;28;20215;-65
2023/04/05 04:32:54;;;;;;;14.33;8.37;;;2.40;99.90;;;;;;5006165;28;20270;-64
2023/04/05 04:35:27;;;;;;;17.00;10.40;;;2.40;99.90;;;;;;5009593;28;20306;-65
2023/04/05 04:37:58;;;;;;;16.10;11.10;;;2.30;99.90;;;;;;5043632;28;20281;-65
2023/04/05 04:40:39;;;;;;;15.13;10.33;;;2.30;99.90;;;;;;5008267;28;20198;-72
2023/04/05 04:43:13;;;;;;;19.30;10.33;;;2.30;99.90;;;;;;4998812;28;20199;-64
2023/04/05 04:45:50;;;;;;;18.13;9.73;;;2.20;99.90;;;;;;5002432;28;20182;-64
2023/04/05 04:48:17;;;;;;;15.23;10.70;;;2.20;99.90;;;;;;5006909;28;20183;-64
2023/04/05 04:50:44;;;;;;;22.27;11.97;;;2.20;99.90;;;;;;5003488;28;20250;-64
2023/04/05 04:53:11;;;;;;;26.10;10.67;;;2.20;99.90;;;;;;4995560;28;20204;-64
2023/04/05 04:55:37;;;;;;;13.77;9.93;;;2.20;99.90;;;;;;5006095;28;20203;-63
2023/04/05 04:58:09;;;;;;;26.03;10.97;;;2.20;99.90;;;;;;4996860;28;20715;-65
2023/04/05 05:00:37;;;;;;;14.40;9.97;;;2.20;99.90;;;;;;4997134;28;20300;-64
2023/04/05 05:03:03;;;;;;;14.23;10.43;;;2.20;99.90;;;;;;5005377;28;20184;-64
2023/04/05 05:05:29;;;;;;;18.30;10.63;;;2.20;99.90;;;;;;5010042;28;20282;-64
2023/04/05 05:07:54;;;;;;;15.23;10.17;;;2.20;99.90;;;;;;5006530;28;20187;-64
2023/04/05 05:10:20;;;;;;;12.80;9.30;;;2.20;99.90;;;;;;5006163;28;20308;-64
2023/04/05 05:12:47;;;;;;;14.47;9.57;;;2.10;99.90;;;;;;5033473;28;20363;-64
2023/04/05 05:15:13;;;;;;;14.83;9.13;;;2.30;99.90;;;;;;5007306;28;20548;-64
2023/04/05 05:17:39;;;;;;;14.93;9.53;;;2.30;99.90;;;;;;4999996;28;20227;-64
2023/04/05 05:20:09;;;;;;;15.43;8.87;;;2.30;99.90;;;;;;5010705;28;20187;-65
2023/04/05 05:22:36;;;;;;;12.90;9.70;;;2.30;99.90;;;;;;4998168;28;20196;-64
2023/04/05 05:25:02;;;;;;;17.67;9.40;;;2.30;99.90;;;;;;5001352;28;20226;-64
2023/04/05 05:27:28;;;;;;;12.60;8.30;;;2.30;99.90;;;;;;4997823;28;20191;-64
2023/04/05 05:29:54;;;;;;;15.37;10.13;;;2.30;99.90;;;;;;5002229;28;20187;-69
2023/04/05 05:32:21;;;;;;;19.30;9.57;;;2.40;99.90;;;;;;5003131;28;20191;-64
2023/04/05 05:34:47;;;;;;;13.03;9.30;;;2.40;99.90;;;;;;5008766;28;20211;-66
2023/04/05 05:37:13;;;;;;;29.17;10.03;;;2.40;99.90;;;;;;5002019;28;20649;-64
2023/04/05 05:39:39;;;;;;;22.03;9.97;;;2.50;99.90;;;;;;5001881;28;20192;-64
2023/04/05 05:42:05;;;;;;;18.23;10.13;;;2.40;99.90;;;;;;5002129;28;20189;-65
2023/04/05 05:44:31;;;;;;;13.87;10.03;;;2.40;99.90;;;;;;5007694;28;20195;-65
2023/04/05 05:46:57;;;;;;;18.93;10.43;;;2.50;99.90;;;;;;5012799;28;20197;-66
2023/04/05 05:49:23;;;;;;;12.07;9.10;;;2.50;99.90;;;;;;5001608;28;20184;-65
2023/04/05 05:51:51;;;;;;;13.27;9.60;;;2.60;99.90;;;;;;5006614;28;20199;-65
2023/04/05 05:54:17;;;;;;;14.73;8.87;;;2.70;99.90;;;;;;5003534;28;20369;-65
2023/04/05 05:56:43;;;;;;;17.13;10.20;;;2.70;99.90;;;;;;5007979;28;20386;-65
2023/04/05 05:59:08;;;;;;;17.07;10.93;;;2.80;99.90;;;;;;5003089;28;20642;-66
2023/04/05 06:01:37;;;;;;;19.93;11.43;;;2.80;99.90;;;;;;5000409;28;20184;-67
2023/04/05 06:04:05;;;;;;;18.43;11.33;;;2.80;99.90;;;;;;5005667;28;20199;-66
2023/04/05 06:06:32;;;;;;;15.00;10.80;;;2.90;99.90;;;;;;5001961;28;20184;-66
2023/04/05 06:08:58;;;;;;;23.57;12.43;;;3.00;99.90;;;;;;4996958;28;20210;-67
2023/04/05 06:11:25;;;;;;;20.10;10.03;;;3.00;99.90;;;;;;5037035;28;20192;-67
2023/04/05 06:13:51;;;;;;;18.37;10.63;;;3.10;99.90;;;;;;5031459;28;20244;-67
2023/04/05 06:16:17;;;;;;;14.10;11.13;;;3.10;99.90;;;;;;5008443;28;20196;-67
2023/04/05 06:18:43;;;;;;;17.27;11.93;;;3.20;99.90;;;;;;5006553;28;20239;-66
2023/04/05 06:21:09;;;;;;;19.07;10.73;;;3.30;99.90;;;;;;5006814;28;20570;-69
2023/04/05 06:23:35;;;;;;;16.03;11.63;;;3.40;99.90;;;;;;4999242;28;20587;-67
2023/04/05 06:26:01;;;;;;;17.10;11.57;;;3.40;99.90;;;;;;5008955;28;20191;-67
2023/04/05 06:28:27;;;;;;;17.57;12.87;;;3.50;99.90;;;;;;5001080;28;20253;-67
2023/04/05 06:30:54;;;;;;;17.60;11.47;;;3.50;99.90;;;;;;5010036;28;20192;-67
2023/04/05 06:33:20;;;;;;;22.13;13.13;;;3.70;99.90;;;;;;4996239;28;20250;-66
2023/04/05 06:35:46;;;;;;;22.10;13.23;;;3.70;99.90;;;;;;5031901;28;20192;-67
2023/04/05 06:38:11;;;;;;;18.93;13.37;;;3.80;99.90;;;;;;5009510;28;20192;-67
2023/04/05 06:40:37;;;;;;;23.47;13.43;;;3.90;99.90;;;;;;5028325;28;20672;-67
2023/04/05 06:43:03;;;;;;;24.03;15.03;;;3.90;99.90;;;;;;5006106;28;20279;-67
2023/04/05 06:45:30;;;;;;;25.77;14.30;;;4.10;99.90;;;;;;5008133;28;20280;-67
2023/04/05 06:47:55;;;;;;;31.20;15.30;;;4.20;99.90;;;;;;5011165;28;20190;-67
2023/04/05 06:50:21;;;;;;;25.40;14.53;;;4.30;99.90;;;;;;5018124;28;20543;-67
2023/04/05 06:52:47;;;;;;;19.67;13.10;;;4.40;99.90;;;;;;5007164;28;20599;-67
2023/04/05 06:55:13;;;;;;;21.83;15.80;;;4.40;99.90;;;;;;5042282;28;20192;-67
2023/04/05 06:57:38;;;;;;;27.90;14.13;;;4.60;99.90;;;;;;5011515;28;20555;-67
2023/04/05 07:00:11;;;;;;;30.73;14.83;;;4.70;99.90;;;;;;5010068;28;20199;-67
2023/04/05 07:02:38;;;;;;;25.13;14.20;;;4.70;99.90;;;;;;5011910;28;20642;-67
2023/04/05 07:05:04;;;;;;;24.67;14.77;;;4.80;99.90;;;;;;5029265;28;20188;-67
2023/04/05 07:07:44;;;;;;;30.03;14.47;;;4.90;99.90;;;;;;5010275;28;20194;-67
2023/04/05 07:10:10;;;;;;;27.10;14.50;;;5.00;99.90;;;;;;5010412;28;20183;-67
2023/04/05 07:12:36;;;;;;;29.37;15.67;;;5.10;99.90;;;;;;5008859;28;20522;-67
2023/04/05 07:15:02;;;;;;;24.23;14.70;;;5.20;99.90;;;;;;5006877;28;20219;-67
2023/04/05 07:17:28;;;;;;;23.87;13.80;;;5.30;99.90;;;;;;5007742;28;20223;-67
2023/04/05 07:19:53;;;;;;;24.33;15.30;;;5.40;99.90;;;;;;5027147;28;20735;-67
2023/04/05 07:22:19;;;;;;;18.97;13.77;;;5.50;99.90;;;;;;5006974;28;20562;-67
2023/04/05 07:24:45;;;;;;;24.23;14.43;;;5.60;99.90;;;;;;4996061;28;20667;-66
2023/04/05 07:27:11;;;;;;;21.67;14.37;;;5.70;99.90;;;;;;5002034;28;20195;-68
2023/04/05 07:29:39;;;;;;;23.93;13.37;;;6.10;99.90;;;;;;5006347;28;20187;-67
2023/04/05 07:32:06;;;;;;;23.87;14.73;;;7.70;99.90;;;;;;5003676;28;20267;-67
2023/04/05 07:34:33;;;;;;;23.57;13.30;;;10.20;99.90;;;;;;5002733;28;20219;-67
2023/04/05 07:36:58;;;;;;;18.10;11.75;;;12.30;99.90;;;;;;5012867;28;20203;-67
2023/04/05 07:39:24;;;;;;;22.75;12.50;;;14.30;99.90;;;;;;5039609;28;20319;-68
2023/04/05 07:41:50;;;;;;;21.30;11.10;;;15.80;99.90;;;;;;5008052;28;20202;-67
2023/04/05 07:44:16;;;;;;;22.75;11.13;;;17.00;99.90;;;;;;5007744;28;20592;-67
2023/04/05 07:46:43;;;;;;;12.98;9.70;;;18.10;99.90;;;;;;4999940;28;20187;-67
2023/04/05 07:49:10;;;;;;;22.00;9.73;;;18.70;99.90;;;;;;5006544;28;20184;-66
2023/04/05 07:51:37;;;;;;;12.93;9.23;;;19.60;99.90;;;;;;4999606;28;20188;-70
2023/04/05 07:54:04;;;;;;;17.25;9.40;;;20.10;99.90;;;;;;4997080;28;20573;-67
2023/04/05 07:56:30;;;;;;;14.25;7.55;;;19.80;99.90;;;;;;5005404;28;20195;-67
2023/04/05 07:58:57;;;;;;;14.45;10.32;;;20.30;99.90;;;;;;5012724;28;20179;-67
2023/04/05 08:01:26;;;;;;;12.20;7.55;;;21.10;99.90;;;;;;5008392;28;20176;-67
2023/04/05 08:03:53;;;;;;;13.15;8.32;;;21.20;99.90;;;;;;5000376;28;20537;-66
2023/04/05 08:06:19;;;;;;;7.72;6.53;;;21.20;99.90;;;;;;5008212;28;20203;-67
2023/04/05 08:08:46;;;;;;;15.88;7.60;;;21.60;99.90;;;;;;5002882;28;20697;-67
2023/04/05 08:11:12;;;;;;;18.38;7.60;;;21.90;99.90;;;;;;5009603;28;20672;-67
2023/04/05 08:13:40;;;;;;;11.23;7.75;;;22.20;99.90;;;;;;5016941;28;20215;-66
2023/04/05 08:16:07;;;;;;;9.45;8.15;;;22.40;99.90;;;;;;5010605;28;20183;-71
2023/04/05 08:18:33;;;;;;;12.82;8.55;;;22.80;99.90;;;;;;5015613;28;20237;-66
2023/04/05 08:20:59;;;;;;;12.32;7.78;;;22.70;99.90;;;;;;5009110;28;20191;-66
2023/04/05 08:23:26;;;;;;;21.58;8.93;;;22.90;99.90;;;;;;5007990;28;20184;-75
2023/04/05 08:25:52;;;;;;;10.15;6.80;;;22.50;99.90;;;;;;5016678;28;20184;-66
2023/04/05 08:28:17;;;;;;;12.05;7.28;;;22.40;99.90;;;;;;5008134;28;20274;-65
2023/04/05 08:30:44;;;;;;;12.18;7.32;;;22.30;99.90;;;;;;5016609;28;20265;-72
2023/04/05 08:33:10;;;;;;;16.17;8.73;;;21.90;99.20;;;;;;5007453;28;20223;-66
2023/04/05 08:35:37;;;;;;;14.20;8.20;;;21.50;99.90;;;;;;5000375;28;20188;-74
2023/04/05 08:38:04;;;;;;;12.07;8.38;;;21.30;99.10;;;;;;5017877;28;20233;-69
2023/04/05 08:40:43;;;;;;;13.38;7.38;;;21.20;99.50;;;;;;5012105;28;20565;-68
2023/04/05 08:43:40;;;;;;;13.98;7.47;;;22.20;98.90;;;;;;5008348;28;20183;-65
2023/04/05 08:46:08;;;;;;;11.52;8.25;;;22.20;98.40;;;;;;5004191;28;20263;-70
2023/04/05 08:48:37;;;;;;;12.18;8.10;;;22.30;99.00;;;;;;5024116;28;20187;-72
2023/04/05 08:51:03;;;;;;;16.45;7.22;;;21.90;97.30;;;;;;5009801;28;20187;-67
2023/04/05 08:53:29;;;;;;;10.85;6.78;;;21.20;97.50;;;;;;5011858;28;20218;-67
2023/04/05 08:55:57;;;;;;;12.38;7.20;;;20.40;98.80;;;;;;5001792;28;20538;-75
2023/04/05 08:58:24;;;;;;;11.07;7.28;;;18.90;98.30;;;;;;5009296;28;20191;-66
2023/04/05 09:00:51;;;;;;;13.10;7.43;;;17.10;99.90;;;;;;5006652;28;20191;-66
2023/04/05 09:03:21;;;;;;;12.32;7.75;;;15.90;99.90;;;;;;4999289;28;20186;-72
2023/04/05 09:05:52;;;;;;;9.85;7.50;;;15.30;99.90;;;;;;5010681;28;20191;-67
2023/04/05 09:08:20;;;;;;;10.57;6.70;;;14.70;99.90;;;;;;5007835;28;20476;-66
2023/04/05 09:10:49;;;;;;;11.73;7.28;;;14.70;99.90;;;;;;5010527;28;20211;-67
2023/04/05 09:13:14;;;;;;;16.08;8.02;;;14.20;99.90;;;;;;4994223;28;20298;-72
2023/04/05 09:15:40;;;;;;;12.90;8.48;;;13.20;99.90;;;;;;5024662;28;20415;-66
2023/04/05 09:18:06;;;;;;;14.88;8.20;;;12.90;99.90;;;;;;5012101;28;20239;-66
2023/04/05 09:20:31;;;;;;;14.70;9.00;;;12.60;99.90;;;;;;5013813;28;20269;-70
2023/04/05 09:22:57;;;;;;;12.38;8.70;;;12.40;99.90;;;;;;5005171;28;20194;-65
2023/04/05 09:25:41;;;;;;;12.27;7.70;;;12.50;99.90;;;;;;5025256;28;20197;-67
2023/04/05 09:28:11;;;;;;;13.48;8.05;;;12.30;99.90;;;;;;4998525;28;20330;-67
2023/04/05 09:30:36;;;;;;;17.38;8.45;;;12.20;99.90;;;;;;5006235;28;20184;-66
2023/04/05 09:33:06;;;;;;;13.02;7.78;;;12.20;99.90;;;;;;5007057;28;20198;-66
2023/04/05 09:35:35;;;;;;;12.25;8.05;;;12.30;99.90;;;;;;5027024;28;20192;-66
2023/04/05 09:38:02;;;;;;;14.93;9.30;;;12.20;99.90;;;;;;5004216;28;20270;-66
2023/04/05 09:40:44;;;;;;;10.43;7.60;;;12.20;99.90;;;;;;5006066;28;20191;-63
2023/04/05 09:43:30;;;;;;;13.95;7.65;;;11.90;99.90;;;;;;5000500;28;20743;-65
2023/04/05 09:45:56;;;;;;;12.35;7.68;;;11.90;99.90;;;;;;5012353;28;20203;-65
2023/04/05 09:48:48;;;;;;;10.65;7.38;;;12.10;99.90;;;;;;5010486;28;20636;-65
2023/04/05 09:51:15;;;;;;;13.30;9.20;;;11.80;99.90;;;;;;4999852;28;20541;-70
2023/04/05 09:54:01;;;;;;;15.50;10.02;;;11.70;99.90;;;;;;4999299;28;20285;-66
2023/04/05 09:56:29;;;;;;;13.23;7.50;;;11.90;99.90;;;;;;4998522;28;20188;-66
2023/04/05 09:59:12;;;;;;;19.77;9.55;;;11.90;99.90;;;;;;5002274;28;20184;-65
2023/04/05 10:01:42;;;;;;;14.52;8.20;;;12.00;99.90;;;;;;4995808;28;20237;-65
2023/04/05 10:04:07;;;;;;;12.30;8.23;;;12.30;99.90;;;;;;4998180;28;20180;-65
2023/04/05 10:06:37;;;;;;;12.82;8.32;;;12.20;99.90;;;;;;5030417;28;20188;-69
2023/04/05 10:09:04;;;;;;;11.40;7.82;;;12.10;99.90;;;;;;5010923;28;20729;-66
2023/04/05 10:11:30;;;;;;;16.45;8.40;;;12.00;99.90;;;;;;5003545;28;20563;-66
2023/04/05 10:13:59;;;;;;;18.58;9.00;;;11.90;99.90;;;;;;4996166;28;20228;-69
2023/04/05 10:16:27;;;;;;;12.38;8.50;;;11.90;99.90;;;;;;5013789;28;20187;-69
2023/04/05 10:18:53;;;;;;;14.85;8.07;;;11.90;99.90;;;;;;5014563;28;20195;-67
2023/04/05 10:21:26;;;;;;;13.57;8.00;;;12.00;99.90;;;;;;5009603;28;20230;-68
2023/04/05 10:24:12;;;;;;;13.13;8.68;;;12.30;99.90;;;;;;5007670;28;20188;-66
2023/04/05 10:27:03;;;;;;;10.27;7.65;;;12.30;99.90;;;;;;5004934;28;20635;-68
2023/04/05 10:29:49;;;;;;;12.80;8.38;;;12.30;99.90;;;;;;5012901;28;20183;-73
2023/04/05 10:32:41;;;;;;;13.85;8.43;;;12.10;99.90;;;;;;5004977;28;20179;-71
2023/04/05 10:35:23;;;;;;;13.90;8.15;;;12.00;99.90;;;;;;4997737;28;20282;-65
2023/04/05 10:38:23;;;;;;;16.10;8.38;;;11.70;99.90;;;;;;4999444;28;20265;-64
2023/04/05 10:41:18;;;;;;;14.30;8.10;;;11.50;99.90;;;;;;5005855;28;20195;-67
2023/04/05 10:43:45;;;;;;;14.80;7.93;;;11.50;99.90;;;;;;5011501;28;20199;-67
2023/04/05 10:46:12;;;;;;;15.13;9.65;;;11.60;99.90;;;;;;5009433;28;20176;-66
2023/04/05 10:49:00;;;;;;;13.35;9.32;;;11.50;99.90;;;;;;5007175;28;20237;-68
2023/04/05 10:51:26;;;;;;;16.30;8.15;;;11.20;99.90;;;;;;5011161;28;20188;-68
2023/04/05 10:53:55;;;;;;;17.40;8.70;;;11.40;99.90;;;;;;5013528;28;20215;-68
2023/04/05 10:56:21;;;;;;;12.77;8.25;;;11.70;99.90;;;;;;5005563;28;20188;-68
2023/04/05 10:58:49;;;;;;;8.73;7.38;;;11.80;99.90;;;;;;5014049;28;20673;-66
2023/04/05 11:01:17;;;;;;;14.20;8.52;;;11.90;99.90;;;;;;5012694;28;20199;-75
2023/04/05 11:03:53;;;;;;;12.65;8.00;;;12.00;99.90;;;;;;5007518;28;20183;-66
2023/04/05 11:06:19;;;;;;;10.77;7.80;;;12.30;99.90;;;;;;5013803;28;20186;-69
2023/04/05 11:08:46;;;;;;;13.73;9.10;;;12.40;99.90;;;;;;5003866;28;20228;-69
2023/04/05 11:11:17;;;;;;;10.23;7.05;;;12.70;99.90;;;;;;5006759;28;20199;-65
2023/04/05 11:13:54;;;;;;;11.70;7.97;;;12.70;99.90;;;;;;5017603;28;20253;-64
2023/04/05 11:16:21;;;;;;;17.75;7.75;;;12.70;99.90;;;;;;5007362;28;20186;-68
2023/04/05 11:18:51;;;;;;;12.80;7.80;;;12.70;99.90;;;;;;5020144;28;20270;-69
2023/04/05 11:21:21;;;;;;;11.10;7.80;;;12.80;99.90;;;;;;5014816;28;20182;-64
2023/04/05 11:24:17;;;;;;;16.85;9.63;;;12.80;99.90;;;;;;5011586;28;20191;-64
2023/04/05 11:26:43;;;;;;;15.65;8.63;;;12.30;99.90;;;;;;4997091;28;20203;-71
2023/04/05 11:29:10;;;;;;;12.05;7.47;;;12.30;99.90;;;;;;5005266;28;20767;-65
2023/04/05 11:31:55;;;;;;;11.75;9.02;;;12.30;99.90;;;;;;5022481;28;20185;-65
2023/04/05 11:34:23;;;;;;;12.15;7.50;;;12.30;99.90;;;;;;5009538;28;20210;-64
2023/04/05 11:36:50;;;;;;;13.80;8.95;;;12.40;99.90;;;;;;5009317;28;20199;-65
2023/04/05 11:39:21;;;;;;;8.75;7.50;;;12.40;99.90;;;;;;4997196;28;20187;-74
2023/04/05 11:41:54;;;;;;;14.60;8.65;;;12.30;99.90;;;;;;5002510;28;20192;-69
2023/04/05 11:44:22;;;;;;;11.60;7.20;;;12.30;99.90;;;;;;5006710;28;20196;-66
2023/04/05 11:46:47;;;;;;;14.82;7.88;;;12.30;99.90;;;;;;5028429;28;20192;-64
2023/04/05 11:49:13;;;;;;;14.48;8.90;;;12.30;99.90;;;;;;5005340;28;20195;-72
2023/04/05 11:51:43;;;;;;;12.18;8.02;;;12.30;99.90;;;;;;5009700;28;20184;-64
2023/04/05 11:54:09;;;;;;;11.40;8.93;;;12.60;99.90;;;;;;5011905;28;20220;-68
2023/04/05 11:56:35;;;;;;;15.45;7.75;;;12.70;99.90;;;;;;5020293;28;20186;-72
2023/04/05 11:59:00;;;;;;;13.80;9.10;;;12.80;99.90;;;;;;5011595;28;20534;-66
2023/04/05 12:01:26;;;;;;;13.05;8.38;;;12.80;99.90;;;;;;5003704;28;20330;-64
2023/04/05 12:03:56;;;;;;;13.95;8.60;;;12.80;99.90;;;;;;5010272;28;20204;-69
2023/04/05 12:06:23;;;;;;;13.00;8.57;;;12.40;99.90;;;;;;5007118;28;20195;-65
2023/04/05 12:08:49;;;;;;;17.73;9.30;;;12.00;99.90;;;;;;5012769;28;20175;-64
2023/04/05 12:11:22;;;;;;;14.32;8.70;;;12.00;99.90;;;;;;5006231;28;20535;-72
2023/04/05 12:13:52;;;;;;;12.73;8.15;;;11.90;99.90;;;;;;5013318;28;20203;-68
2023/04/05 12:16:18;;;;;;;11.15;8.00;;;11.60;99.90;;;;;;4992887;28;20281;-66
2023/04/05 12:18:43;;;;;;;14.48;9.00;;;11.60;99.90;;;;;;5004550;28;20279;-64
2023/04/05 12:21:10;;;;;;;14.88;8.38;;;11.90;99.90;;;;;;5010525;28;20193;-72
2023/04/05 12:23:36;;;;;;;12.02;7.13;;;12.30;99.90;;;;;;5012682;28;20198;-64
2023/04/05 12:26:03;;;;;;;11.55;6.75;;;12.60;99.90;;;;;;5004050;28;20190;-71
2023/04/05 12:28:57;;;;;;;14.25;7.93;;;12.30;99.90;;;;;;4996333;28;20327;-64
2023/04/05 12:31:39;;;;;;;11.15;8.40;;;12.50;99.90;;;;;;5013563;28;20188;-64
2023/04/05 12:34:05;;;;;;;11.85;7.47;;;12.70;99.90;;;;;;5005414;28;20217;-64
2023/04/05 12:36:31;;;;;;;16.42;8.50;;;12.70;99.90;;;;;;5007364;28;20183;-64
2023/04/05 12:38:57;;;;;;;13.80;8.25;;;12.60;99.90;;;;;;5003187;28;20260;-65
2023/04/05 12:41:30;;;;;;;11.98;7.90;;;12.80;99.90;;;;;;5009721;28;20195;-64
2023/04/05 12:44:00;;;;;;;17.52;9.23;;;12.90;99.90;;;;;;5008266;28;20198;-65
2023/04/05 12:46:42;;;;;;;11.65;7.65;;;12.90;99.90;;;;;;5014666;28;20265;-70
2023/04/05 12:49:11;;;;;;;12.35;7.95;;;12.50;99.90;;;;;;5009730;28;20183;-71